Time;durP1;ratioP1;P1;durP2;ratioP2;P2;SDS_P1;SDS_P2;PMS_P1;PMS_P2;Temp;Humidity;BMP_temperature;BMP_pressure;BME280_temperature;BME280_humidity;BME280_pressure;Samples;Min_cycle;Max_cycle;Signal;HPM_P1;HPM_P2
2023/10/17 00:06:55;;;;;;;13.9;7.1;;;;;;;6.48;82.45;;;;;
2023/10/17 00:17:56;;;;;;;13.8;7.9;;;;;;;6.31;82.81;;;;;
2023/10/17 00:27:55;;;;;;;13.8;7.9;;;;;;;6.16;83.53;;;;;
2023/10/17 00:39:07;;;;;;;16.5;10.5;;;;;;;6.13;83.56;;;;;
2023/10/17 00:49:55;;;;;;;16.5;10.5;;;;;;;6.16;83.11;;;;;
2023/10/17 01:00:58;;;;;;;16.5;10.5;;;;;;;6.28;82.68;;;;;
2023/10/17 01:11:55;;;;;;;13.3;8.1;;;;;;;6.37;82.09;;;;;
2023/10/17 01:22:56;;;;;;;13.3;8.1;;;;;;;6.32;82.4;;;;;
2023/10/17 01:33:55;;;;;;;13.3;8.1;;;;;;;6.34;82.35;;;;;
2023/10/17 01:44:55;;;;;;;15.2;7;;;;;;;6.28;81.72;;;;;
2023/10/17 01:54:55;;;;;;;15.2;7;;;;;;;6.15;81.94;;;;;
2023/10/17 02:04:57;;;;;;;15.2;7;;;;;;;5.99;82.39;;;;;
2023/10/17 02:15:55;;;;;;;12.1;6.6;;;;;;;5.79;82.98;;;;;
2023/10/17 02:26:55;;;;;;;12.1;6.6;;;;;;;5.6;83.03;;;;;
2023/10/17 02:37:57;;;;;;;11.9;6.6;;;;;;;5.45;83.07;;;;;
2023/10/17 02:47:57;;;;;;;11.9;6.6;;;;;;;5.31;82.88;;;;;
2023/10/17 02:59:10;;;;;;;11.9;6.6;;;;;;;5.03;82.55;;;;;
2023/10/17 03:09:00;;;;;;;12;6.3;;;;;;;4.71;82.67;;;;;
2023/10/17 03:19:57;;;;;;;12;6.3;;;;;;;4.34;82.63;;;;;
2023/10/17 03:30:55;;;;;;;12;6.3;;;;;;;3.99;83.15;;;;;
2023/10/17 03:41:01;;;;;;;10;6;;;;;;;3.66;85.27;;;;;
2023/10/17 03:51:55;;;;;;;10;6;;;;;;;3.51;87.48;;;;;
2023/10/17 04:01:55;;;;;;;10;6;;;;;;;3.33;87.33;;;;;
2023/10/17 04:13:13;;;;;;;13.8;6.3;;;;;;;3.09;87.4;;;;;
2023/10/17 04:22:56;;;;;;;13.8;6.3;;;;;;;3.01;87.48;;;;;
2023/10/17 04:33:56;;;;;;;13.8;6.3;;;;;;;2.83;88.2;;;;;
2023/10/17 04:43:55;;;;;;;16;7.3;;;;;;;2.69;87.37;;;;;
2023/10/17 04:54:58;;;;;;;16;7.3;;;;;;;2.56;87.81;;;;;
2023/10/17 05:06:10;;;;;;;16;7.3;;;;;;;2.44;88.33;;;;;
2023/10/17 06:19:58;;;;;;;16.4;6.4;;;;;;;3.34;89.6;;;;;
2023/10/17 06:30:29;;;;;;;16.4;6.4;;;;;;;3.72;89.64;;;;;
2023/10/17 06:39:58;;;;;;;16.5;8.7;;;;;;;4.2;89.75;;;;;
2023/10/17 06:51:29;;;;;;;16.5;8.7;;;;;;;4.69;89.46;;;;;
2023/10/17 07:00:59;;;;;;;16.5;8.7;;;;;;;5.28;89.52;;;;;
2023/10/17 07:10:59;;;;;;;19.2;10.7;;;;;;;5.82;87.84;;;;;
2023/10/17 07:21:57;;;;;;;19.2;10.7;;;;;;;6.36;86.14;;;;;
2023/10/17 07:32:56;;;;;;;19.2;10.7;;;;;;;6.76;84.64;;;;;
2023/10/17 07:43:59;;;;;;;15.2;9.7;;;;;;;6.82;82.05;;;;;
2023/10/17 07:53:55;;;;;;;15.2;9.7;;;;;;;7.37;81.17;;;;;
2023/10/17 08:04:55;;;;;;;15.2;9.7;;;;;;;7.86;79.4;;;;;
2023/10/17 08:14:58;;;;;;;20.2;11.8;;;;;;;8.28;78.74;;;;;
2023/10/17 08:25:59;;;;;;;20.2;11.8;;;;;;;8.65;76.56;;;;;
2023/10/17 08:36:57;;;;;;;13.7;8;;;;;;;9.03;72.87;;;;;
2023/10/17 08:47:59;;;;;;;13.7;8;;;;;;;9.35;72.48;;;;;
2023/10/17 08:57:55;;;;;;;13.7;8;;;;;;;9.49;71.9;;;;;
2023/10/17 09:08:55;;;;;;;13.8;7.8;;;;;;;9.56;69;;;;;
2023/10/17 09:18:55;;;;;;;13.8;7.8;;;;;;;9.6;67.42;;;;;
2023/10/17 09:29:55;;;;;;;13.8;7.8;;;;;;;9.82;67.66;;;;;
2023/10/17 09:39:55;;;;;;;12.4;5.7;;;;;;;10.56;66.44;;;;;
2023/10/17 09:50:56;;;;;;;12.4;5.7;;;;;;;11.04;63.25;;;;;
2023/10/17 10:00:55;;;;;;;12.4;5.7;;;;;;;11.36;61.21;;;;;
2023/10/17 10:11:55;;;;;;;10.5;6.2;;;;;;;12.1;61.05;;;;;
2023/10/17 10:21:55;;;;;;;10.5;6.2;;;;;;;12.04;57.85;;;;;
2023/10/17 10:31:55;;;;;;;10.5;6.2;;;;;;;12.08;57.47;;;;;
2023/10/17 10:41:55;;;;;;;8.8;5.9;;;;;;;12.15;57.39;;;;;
2023/10/17 10:52:56;;;;;;;8.8;5.9;;;;;;;12.33;54.16;;;;;
2023/10/17 11:03:55;;;;;;;8.8;5.9;;;;;;;12.46;55.03;;;;;
2023/10/17 11:14:56;;;;;;;10.6;6.4;;;;;;;12.65;52.06;;;;;
2023/10/17 11:24:55;;;;;;;10.6;6.4;;;;;;;13.29;50.79;;;;;
2023/10/17 11:44:55;;;;;;;9.3;5.1;;;;;;;13.46;49.16;;;;;
2023/10/17 11:54:55;;;;;;;9.3;5.1;;;;;;;13.03;48.84;;;;;
2023/10/17 12:05:55;;;;;;;9.3;5.1;;;;;;;12.41;50.49;;;;;
2023/10/17 12:15:56;;;;;;;8;5;;;;;;;12.83;52.11;;;;;
2023/10/17 12:26:55;;;;;;;8;5;;;;;;;12.78;49.29;;;;;
2023/10/17 12:37:58;;;;;;;6.5;3.5;;;;;;;13.71;49.96;;;;;
2023/10/17 12:48:55;;;;;;;6.5;3.5;;;;;;;13.76;48.52;;;;;
2023/10/17 12:59:57;;;;;;;6.5;3.5;;;;;;;13.78;47.98;;;;;
2023/10/17 13:10:55;;;;;;;6.8;4.1;;;;;;;13.58;50.28;;;;;
2023/10/17 13:21:56;;;;;;;6.8;4.1;;;;;;;13.41;51.72;;;;;
2023/10/17 13:31:56;;;;;;;6.8;4.1;;;;;;;13.09;48.83;;;;;
2023/10/17 13:42:55;;;;;;;7;3.4;;;;;;;13.57;49.33;;;;;
2023/10/17 13:53:57;;;;;;;7;3.4;;;;;;;13.74;49.23;;;;;
2023/10/17 14:03:55;;;;;;;7;3.4;;;;;;;13.74;51.34;;;;;
2023/10/17 14:13:55;;;;;;;8.2;4.7;;;;;;;13.25;50.28;;;;;
2023/10/17 14:23:58;;;;;;;8.2;4.7;;;;;;;12.66;53.19;;;;;
2023/10/17 14:34:56;;;;;;;8.2;4.7;;;;;;;12.24;54.7;;;;;
2023/10/17 14:45:55;;;;;;;8.6;6.2;;;;;;;11.89;56.42;;;;;
2023/10/17 14:55:56;;;;;;;8.6;6.2;;;;;;;11.66;56.65;;;;;
2023/10/17 15:05:55;;;;;;;9.1;5.1;;;;;;;11.19;57.94;;;;;
2023/10/17 15:16:55;;;;;;;9.1;5.1;;;;;;;10.9;59.11;;;;;
2023/10/17 15:27:55;;;;;;;9.1;5.1;;;;;;;10.23;62.99;;;;;
2023/10/17 15:37:56;;;;;;;10.9;4;;;;;;;9.69;63.3;;;;;
2023/10/17 15:47:55;;;;;;;10.9;4;;;;;;;9.25;65.19;;;;;
2023/10/17 15:57:55;;;;;;;10.9;4;;;;;;;8.93;67.52;;;;;
2023/10/17 16:08:55;;;;;;;10.5;5.3;;;;;;;8.71;69.04;;;;;
2023/10/17 16:18:55;;;;;;;10.5;5.3;;;;;;;8.55;69.8;;;;;
2023/10/17 16:29:57;;;;;;;10.5;5.3;;;;;;;8.41;69.63;;;;;
2023/10/17 16:40:56;;;;;;;17.1;10.2;;;;;;;8.14;71.31;;;;;
2023/10/17 16:50:55;;;;;;;17.1;10.2;;;;;;;7.92;73.42;;;;;
2023/10/17 17:01:55;;;;;;;17.1;10.2;;;;;;;7.74;74.05;;;;;
2023/10/17 17:11:55;;;;;;;17.1;10.4;;;;;;;7.56;73.55;;;;;
2023/10/17 17:21:56;;;;;;;17.1;10.4;;;;;;;7.35;74.55;;;;;
2023/10/17 17:32:57;;;;;;;17.1;10.4;;;;;;;7.13;73.98;;;;;
2023/10/17 17:42:55;;;;;;;18.8;9.7;;;;;;;6.91;75.37;;;;;
2023/10/17 17:53:56;;;;;;;18.8;9.7;;;;;;;6.6;75.91;;;;;
2023/10/17 18:04:55;;;;;;;18.8;9.7;;;;;;;6.39;76.42;;;;;
2023/10/17 18:15:56;;;;;;;15.8;9.3;;;;;;;5.95;77.15;;;;;
2023/10/17 18:26:56;;;;;;;15.8;9.3;;;;;;;5.53;79.3;;;;;
2023/10/17 18:37:56;;;;;;;21.1;12.5;;;;;;;5.21;80.21;;;;;
2023/10/17 18:48:55;;;;;;;21.1;12.5;;;;;;;4.84;80.85;;;;;
2023/10/17 18:59:55;;;;;;;21.1;12.5;;;;;;;4.55;81.38;;;;;
2023/10/17 19:09:56;;;;;;;19.9;13.5;;;;;;;4.25;82.09;;;;;
2023/10/17 19:20:56;;;;;;;19.9;13.5;;;;;;;4.05;83.1;;;;;
2023/10/17 19:30:56;;;;;;;19.9;13.5;;;;;;;3.9;83.48;;;;;
2023/10/17 19:40:56;;;;;;;25.8;14.9;;;;;;;3.72;84.16;;;;;
2023/10/17 19:50:56;;;;;;;25.8;14.9;;;;;;;3.52;84.53;;;;;
2023/10/17 20:00:56;;;;;;;25.8;14.9;;;;;;;3.36;84.43;;;;;
2023/10/17 20:11:56;;;;;;;26.5;14;;;;;;;3.17;84.75;;;;;
2023/10/17 20:21:56;;;;;;;26.5;14;;;;;;;3.04;85.29;;;;;
2023/10/17 20:31:56;;;;;;;26.5;14;;;;;;;2.96;85.9;;;;;
2023/10/17 20:42:56;;;;;;;26.4;13.8;;;;;;;2.79;85.64;;;;;
2023/10/17 20:52:56;;;;;;;26.4;13.8;;;;;;;2.64;85.24;;;;;
2023/10/17 21:02:56;;;;;;;26.4;13.8;;;;;;;2.55;86.66;;;;;
2023/10/17 21:12:56;;;;;;;21.7;13.2;;;;;;;2.49;86.38;;;;;
2023/10/17 21:22:56;;;;;;;21.7;13.2;;;;;;;2.18;87.4;;;;;
2023/10/17 21:32:57;;;;;;;21.7;13.2;;;;;;;2.12;87.56;;;;;
2023/10/17 21:43:56;;;;;;;22;12.7;;;;;;;2.27;87.68;;;;;
2023/10/17 21:54:56;;;;;;;22;12.7;;;;;;;2.33;87.77;;;;;
2023/10/17 22:04:56;;;;;;;22;12.7;;;;;;;2.55;88.2;;;;;
2023/10/17 22:15:56;;;;;;;24;13.6;;;;;;;2.66;87.65;;;;;
2023/10/17 22:25:56;;;;;;;24;13.6;;;;;;;2.61;87.14;;;;;
2023/10/17 22:36:56;;;;;;;23.8;13.8;;;;;;;2.4;86.53;;;;;
2023/10/17 22:47:56;;;;;;;23.8;13.8;;;;;;;2.2;86.24;;;;;
2023/10/17 22:57:56;;;;;;;23.8;13.8;;;;;;;1.98;86.58;;;;;
2023/10/17 23:08:56;;;;;;;27.2;14.6;;;;;;;1.76;86.2;;;;;
2023/10/17 23:18:56;;;;;;;27.2;14.6;;;;;;;1.53;87.7;;;;;
2023/10/17 23:28:56;;;;;;;27.2;14.6;;;;;;;1.45;86.62;;;;;
2023/10/17 23:39:56;;;;;;;22.3;12.7;;;;;;;1.19;88.18;;;;;
2023/10/17 23:49:56;;;;;;;22.3;12.7;;;;;;;1.18;87.43;;;;;
